Shoyo Maru — JLOJ — position and weather

sailwx.info

Track history (hours):
 
Tides and Currents Weather Stations Pressure Air Temp Water Temp Dewpoint Dewpoint Depression Visibility Wind Speed Wind Dir Waves Ship Positions

Oceanographic research ship Shoyo Maru (Japan)

Detailed information on ship capabilities available from University of Delaware's Ocean Information Center.

Last reported at 2014-Dec-18 23:31 UTC. Time now 2014-Dec-21 06:10 UTC.
Position N 35°36' E 139°47'.

Length 87.6 m; beam 14 m.

Type: Other ship. MMSI: 431465000.

Date/timePositionNaut miles runAvg speedWind from/ knotsBaromVisibWave heightAir tempDewpointWater temp
2014-Dec-18 23:31N 35°36' E 139°47'5 4.6
2014-Dec-18 22:20N 35°33' E 139°53'0 0.0
2014-Dec-18 17:17N 35°33' E 139°53'0 0.0
2014-Dec-18 07:13N 35°33' E 139°53'5 7.9
2014-Dec-18 06:33N 35°28' E 139°51'1211.7
2014-Dec-18 05:33N 35°17' E 139°45'24812.3
2014-Dec-17 09:21N 33°59' E 134°59'1215.3
2014-Dec-17 08:33N 34°11' E 134°59'1514.6
2014-Dec-17 07:31N 34°26' E 135°01'1111.3
2014-Dec-17 06:33N 34°37' E 135°00'  
Track history (hours):
 
Tides and Currents Weather Stations Pressure Air Temp Water Temp Dewpoint Dewpoint Depression Visibility Wind Speed Wind Dir Waves Ship Positions

Oceanographic research ship Shoyo Maru (Japan)

Detailed information on ship capabilities available from University of Delaware's Ocean Information Center.

Last reported at 2014-Dec-18 23:31 UTC. Time now 2014-Dec-21 06:10 UTC.
Position N 35°36' E 139°47'.

Length 87.6 m; beam 14 m.

Type: Other ship. MMSI: 431465000.

Date/timePositionNaut miles runAvg speedWind from/ knotsBaromVisibWave heightAir tempDewpointWater temp
2014-Dec-18 23:31N 35°36' E 139°47'5 4.6
2014-Dec-18 22:20N 35°33' E 139°53'0 0.0
2014-Dec-18 17:17N 35°33' E 139°53'0 0.0
2014-Dec-18 07:13N 35°33' E 139°53'5 7.9
2014-Dec-18 06:33N 35°28' E 139°51'1211.7
2014-Dec-18 05:33N 35°17' E 139°45'24812.3
2014-Dec-17 09:21N 33°59' E 134°59'1215.3
2014-Dec-17 08:33N 34°11' E 134°59'1514.6
2014-Dec-17 07:31N 34°26' E 135°01'1111.3
2014-Dec-17 06:33N 34°37' E 135°00'  

Dump ship's entire track history